TAF LFLC
LFLC 090500Z 0906/1006 VRB04KT 9999 BKN030 BECMG 0910/0913 CAVOK BECMG 0918/0920 18012KT BKN050 TEMPO 0922/1003 18015G30KT 4000 RA BKN030 BECMG 1003/1005 30010KT TEMPO 1003/1006 -SHRA=
METAR LFLC
LFLC 090900Z AUTO 25005KT 200V270 9999 FEW015 05/M01 Q1011 NOSIG=
LFLC 090830Z AUTO 26005KT 220V290 CAVOK 04/M01 Q1011 NOSIG=
LFLC 090800Z AUTO 28006KT 9999 FEW029 03/M02 Q1011 NOSIG=
LFLC 090730Z AUTO 29007KT 260V340 9999 FEW031 SCT062 03/M02 Q1011 NOSIG=
LFLC 090700Z AUTO VRB02KT 9999 BKN036 BKN064 02/M02 Q1011 NOSIG=
WC LFLC
WS LFLC
WV LFLC